createdAt,value
2018-08-27T00:04:11.455Z,2.63
2018-08-27T00:06:42.165Z,2.60
2018-08-27T00:09:13.647Z,2.17
2018-08-27T00:11:44.115Z,2.30
2018-08-27T00:14:15.544Z,2.70
2018-08-27T00:16:46.780Z,2.60
2018-08-27T00:19:17.288Z,2.70
2018-08-27T00:21:47.743Z,2.80
2018-08-27T00:24:17.378Z,2.33
2018-08-27T00:26:47.699Z,2.40
2018-08-27T00:29:17.859Z,2.07
2018-08-27T00:31:48.568Z,2.37
2018-08-27T00:34:18.041Z,2.13
2018-08-27T00:36:47.459Z,2.50
2018-08-27T00:39:17.914Z,1.83
2018-08-27T00:41:48.028Z,2.50
2018-08-27T00:44:18.827Z,2.50
2018-08-27T00:46:50.112Z,2.30
2018-08-27T00:49:21.402Z,3.00
2018-08-27T00:51:52.083Z,2.40
2018-08-27T00:54:21.499Z,2.10
2018-08-27T00:56:51.953Z,2.27
2018-08-27T00:59:22.097Z,2.10
2018-08-27T01:01:52.826Z,2.40
2018-08-27T01:04:22.279Z,3.03
2018-08-27T01:06:52.727Z,2.20
2018-08-27T01:09:23.856Z,2.70
2018-08-27T01:11:54.588Z,2.30
2018-08-27T01:14:25.544Z,2.87
2018-08-27T01:16:55.542Z,2.87
2018-08-27T01:19:25.619Z,2.57
2018-08-27T01:21:56.097Z,3.10
2018-08-27T01:24:26.821Z,3.10
2018-08-27T01:26:56.248Z,3.40
2018-08-27T01:29:26.392Z,3.00
2018-08-27T01:32:01.176Z,3.70
2018-08-27T01:34:31.345Z,3.13
2018-08-27T01:37:02.467Z,3.53
2018-08-27T01:39:33.419Z,3.40
2018-08-27T01:42:03.642Z,3.57
2018-08-27T01:44:34.259Z,2.00
2018-08-27T01:47:05.558Z,2.33
2018-08-27T01:49:36.005Z,2.80
2018-08-27T01:52:06.440Z,2.67
2018-08-27T01:54:37.201Z,2.20
2018-08-27T01:57:08.203Z,2.60
2018-08-27T01:59:38.767Z,2.97
2018-08-27T02:02:09.205Z,2.70
2018-08-27T02:04:39.939Z,2.43
2018-08-27T02:07:10.092Z,2.57
2018-08-27T02:09:40.536Z,2.50
2018-08-27T02:12:11.272Z,2.97
2018-08-27T02:14:40.751Z,2.60
2018-08-27T02:17:10.868Z,2.40
2018-08-27T02:19:41.306Z,3.10
2018-08-27T02:22:11.791Z,2.37
2018-08-27T02:24:42.190Z,3.57
2018-08-27T02:27:12.628Z,2.83
2018-08-27T02:29:44.060Z,2.47
2018-08-27T02:32:16.727Z,3.03
2018-08-27T02:34:47.808Z,3.10
2018-08-27T02:37:18.415Z,3.33
2018-08-27T02:39:50.776Z,3.10
2018-08-27T02:42:22.111Z,3.77
2018-08-27T02:44:53.085Z,3.17
2018-08-27T02:47:33.624Z,4.07
2018-08-27T04:00:13.279Z,2.43
2018-08-27T04:02:45.140Z,3.30
2018-08-27T04:05:17.154Z,3.03
2018-08-27T04:07:50.152Z,3.23
2018-08-27T04:10:22.118Z,2.93
2018-08-27T04:12:58.548Z,3.57
2018-08-27T04:15:31.735Z,2.90
2018-08-27T04:18:03.914Z,3.37
2018-08-27T04:20:34.897Z,3.40
2018-08-27T04:23:06.368Z,3.60
2018-08-27T04:25:38.536Z,5.23
2018-08-27T04:28:09.832Z,3.50
2018-08-27T04:30:42.161Z,3.30
2018-08-27T04:33:12.832Z,3.13
2018-08-27T04:35:44.725Z,3.37
2018-08-27T04:38:16.925Z,3.70
2018-08-27T04:40:48.716Z,3.10
2018-08-27T04:46:29.727Z,3.90
2018-08-27T04:51:40.869Z,3.13
2018-08-27T04:54:14.730Z,2.80
2018-08-27T04:56:45.986Z,2.77
2018-08-27T05:01:30.779Z,4.07
2018-08-27T05:12:53.308Z,4.43
2018-08-27T05:15:24.687Z,3.20
2018-08-27T05:17:55.032Z,2.73
2018-08-27T05:20:26.051Z,4.27
2018-08-27T05:22:57.071Z,3.23
2018-08-27T05:25:27.627Z,2.83
2018-08-27T05:27:58.820Z,3.60
2018-08-27T05:30:29.394Z,3.00
2018-08-27T05:33:00.206Z,3.50
2018-08-27T05:35:30.432Z,2.20
2018-08-27T05:38:01.545Z,3.37
2018-08-27T05:40:34.266Z,2.53
2018-08-27T05:46:34.548Z,3.03
2018-08-27T05:49:08.195Z,2.27
2018-08-27T05:51:39.371Z,2.63
2018-08-27T05:57:10.524Z,3.00
2018-08-27T05:59:41.016Z,2.20
2018-08-27T06:02:12.076Z,2.40
2018-08-27T06:04:43.048Z,2.10
2018-08-27T06:07:13.613Z,2.20
2018-08-27T06:09:43.770Z,2.00
2018-08-27T06:12:13.605Z,2.30
2018-08-27T06:14:43.509Z,1.53
2018-08-27T06:17:13.353Z,2.20
2018-08-27T06:19:43.179Z,2.47
2018-08-27T06:22:13.180Z,1.97
2018-08-27T06:24:43.763Z,2.50
2018-08-27T06:27:14.607Z,2.20
2018-08-27T06:29:44.740Z,1.53
2018-08-27T06:32:14.439Z,1.73
2018-08-27T06:34:44.345Z,1.90
2018-08-27T06:37:15.000Z,1.90
2018-08-27T06:39:45.027Z,1.70
2018-08-27T06:42:14.876Z,1.30
2018-08-27T06:44:44.772Z,1.47
2018-08-27T06:47:15.360Z,1.83
2018-08-27T06:49:45.493Z,2.00
2018-08-27T06:52:15.204Z,1.73
2018-08-27T06:54:45.191Z,1.20
2018-08-27T06:57:15.652Z,1.97
2018-08-27T06:59:45.776Z,2.07
2018-08-27T07:02:15.684Z,1.87
2018-08-27T07:04:45.532Z,1.23
2018-08-27T07:07:16.278Z,1.63
2018-08-27T07:09:47.289Z,1.90
2018-08-27T07:12:16.208Z,1.60
2018-08-27T07:14:53.159Z,1.60
2018-08-27T07:17:22.013Z,1.23
2018-08-27T07:22:32.595Z,2.40
2018-08-27T07:25:02.704Z,1.30
2018-08-27T07:27:32.107Z,1.33
2018-08-27T07:47:35.457Z,1.47
2018-08-27T07:50:05.294Z,1.60
2018-08-27T07:52:43.253Z,1.33
2018-08-27T07:55:13.129Z,1.10
2018-08-27T07:57:42.935Z,1.30
2018-08-27T08:00:16.843Z,1.10
2018-08-27T08:02:47.579Z,0.87
2018-08-27T08:05:18.456Z,1.17
2018-08-27T08:07:49.437Z,0.90
2018-08-27T08:10:19.296Z,1.20
2018-08-27T08:12:51.014Z,1.30
2018-08-27T08:15:22.021Z,0.80
2018-08-27T08:17:51.895Z,1.60
2018-08-27T08:20:21.700Z,1.17
2018-08-27T08:22:51.660Z,1.13
2018-08-27T08:25:21.431Z,1.17
2018-08-27T08:27:51.273Z,1.17
2018-08-27T08:30:21.083Z,1.00
2018-08-27T08:32:50.908Z,1.30
2018-08-27T08:35:21.704Z,0.97
2018-08-27T08:37:51.692Z,1.20
2018-08-27T08:40:21.484Z,1.27
2018-08-27T08:42:50.801Z,1.27
2018-08-27T08:45:20.996Z,0.90
2018-08-27T08:47:51.839Z,1.40
2018-08-27T08:50:21.970Z,0.90
2018-08-27T08:52:51.724Z,1.37
2018-08-27T08:55:24.715Z,0.80
2018-08-27T08:57:54.585Z,0.70
2018-08-27T09:00:25.428Z,0.90
2018-08-27T09:02:55.326Z,1.10
2018-08-27T09:05:27.785Z,0.60
2018-08-27T09:07:58.042Z,0.60
2018-08-27T09:10:35.683Z,0.93
2018-08-27T09:13:05.856Z,0.70
2018-08-27T09:15:35.704Z,1.13
2018-08-27T12:37:08.848Z,1.40
2018-08-27T12:39:39.222Z,1.57
2018-08-27T12:42:15.200Z,1.33
2018-08-27T13:00:07.985Z,1.47
2018-08-27T13:05:37.241Z,1.27
2018-08-27T13:15:21.017Z,1.33
2018-08-27T15:26:44.422Z,1.23
2018-08-27T15:29:26.044Z,1.83
2018-08-27T15:35:05.576Z,1.30
2018-08-27T15:37:37.443Z,1.53
2018-08-27T15:40:11.433Z,1.60
2018-08-27T15:42:50.872Z,1.20
2018-08-27T15:47:33.637Z,1.63
2018-08-27T15:50:04.688Z,1.67
2018-08-27T15:52:37.113Z,1.57
2018-08-27T15:55:12.250Z,1.87
2018-08-27T15:57:51.044Z,2.30
2018-08-27T16:00:22.349Z,1.77
2018-08-27T16:02:57.938Z,1.70
2018-08-27T16:05:33.182Z,1.40
2018-08-27T16:08:10.330Z,1.87
2018-08-27T16:10:43.955Z,1.33
2018-08-27T16:13:15.425Z,1.73
2018-08-27T16:15:50.479Z,1.73
2018-08-27T16:18:26.260Z,1.53
2018-08-27T16:21:00.642Z,1.70
2018-08-27T16:23:32.271Z,1.77
2018-08-27T16:26:03.658Z,1.80
2018-08-27T16:44:36.430Z,1.60
2018-08-27T16:47:08.246Z,1.80
2018-08-27T16:49:43.623Z,2.47
2018-08-27T16:52:18.803Z,2.00
2018-08-27T16:54:52.798Z,1.90
2018-08-27T17:00:06.327Z,1.83
2018-08-27T17:02:41.306Z,2.83
2018-08-27T17:11:05.313Z,2.10
2018-08-27T17:13:40.191Z,2.13
2018-08-27T17:16:13.161Z,2.50
2018-08-27T17:18:46.855Z,3.07
2018-08-27T17:21:20.375Z,2.43
2018-08-27T17:23:55.037Z,2.57
2018-08-27T17:26:27.775Z,2.13
2018-08-27T17:29:04.023Z,2.67
2018-08-27T17:31:35.333Z,1.93
2018-08-27T17:34:10.240Z,2.60
2018-08-27T17:36:42.721Z,2.67
2018-08-27T17:39:15.807Z,2.60
2018-08-27T17:41:46.212Z,2.53
2018-08-27T17:44:17.357Z,2.90
2018-08-27T17:46:49.429Z,2.40
2018-08-27T17:49:19.999Z,2.30
2018-08-27T17:51:51.356Z,1.90
2018-08-27T17:54:23.586Z,2.10
2018-08-27T17:56:54.444Z,2.30
2018-08-27T17:59:26.422Z,2.27
2018-08-27T18:01:57.191Z,2.40
2018-08-27T18:04:28.033Z,2.30
2018-08-27T18:06:58.964Z,2.20
2018-08-27T18:09:31.019Z,2.87
2018-08-27T18:12:01.615Z,2.60
2018-08-27T18:14:32.511Z,2.80
2018-08-27T18:17:03.692Z,2.50
2018-08-27T18:19:34.501Z,3.23
2018-08-27T18:22:05.108Z,2.47
2018-08-27T18:24:36.087Z,2.80
2018-08-27T18:27:06.797Z,2.30
2018-08-27T18:29:37.672Z,2.07
2018-08-27T18:32:08.905Z,3.67
2018-08-27T18:34:40.172Z,3.03
2018-08-27T18:37:11.196Z,2.80
2018-08-27T18:39:43.457Z,2.60
2018-08-27T18:42:14.012Z,2.90
2018-08-27T18:44:44.263Z,2.77
2018-08-27T18:47:15.048Z,2.60
2018-08-27T18:49:45.927Z,2.47
2018-08-27T18:52:16.936Z,2.70
2018-08-27T18:54:48.183Z,2.97
2018-08-27T18:57:19.319Z,2.40
2018-08-27T18:59:50.077Z,2.80
2018-08-27T19:02:20.965Z,2.70
2018-08-27T19:04:53.240Z,2.37
2018-08-27T19:07:24.315Z,2.93
2018-08-27T19:09:55.301Z,2.77
2018-08-27T19:12:26.355Z,2.13
2018-08-27T19:14:57.617Z,2.90
2018-08-27T19:17:29.554Z,2.67
2018-08-27T19:20:00.672Z,2.50
2018-08-27T19:22:30.902Z,2.53
2018-08-27T19:25:02.079Z,3.00
2018-08-27T19:27:32.910Z,2.97
2018-08-27T19:30:04.129Z,3.70
2018-08-27T19:32:34.656Z,6.20
2018-08-27T19:35:05.523Z,5.47
2018-08-27T19:37:36.096Z,5.83
2018-08-27T19:40:07.377Z,5.43
2018-08-27T19:42:38.189Z,4.63
2018-08-27T19:45:08.975Z,4.30
2018-08-27T19:47:39.812Z,4.23
2018-08-27T19:50:11.127Z,4.03
2018-08-27T19:52:42.093Z,3.73
2018-08-27T19:55:13.234Z,3.73
2018-08-27T19:57:44.803Z,2.90
2018-08-27T20:00:15.853Z,3.47
2018-08-27T20:02:47.119Z,2.63
2018-08-27T20:05:19.656Z,3.53
2018-08-27T20:07:49.887Z,2.70
2018-08-27T20:10:20.383Z,2.50
2018-08-27T20:12:51.262Z,3.20
2018-08-27T20:15:21.412Z,3.20
2018-08-27T20:17:53.172Z,2.57
2018-08-27T20:20:24.900Z,3.00
2018-08-27T20:22:55.724Z,2.77
2018-08-27T20:25:26.958Z,2.43
2018-08-27T20:27:57.940Z,2.77
2018-08-27T20:30:28.337Z,2.30
2018-08-27T20:32:59.807Z,3.20
2018-08-27T20:35:30.999Z,3.40
2018-08-27T20:38:02.870Z,2.47
2018-08-27T20:40:34.152Z,3.23
2018-08-27T20:43:04.945Z,2.87
2018-08-27T20:45:35.535Z,2.70
2018-08-27T20:48:06.874Z,2.53
2018-08-27T20:50:38.862Z,3.00
2018-08-27T20:53:15.668Z,2.93
2018-08-27T20:55:48.312Z,3.10
2018-08-27T20:58:19.598Z,3.40
2018-08-27T21:00:50.637Z,2.27
2018-08-27T21:03:21.916Z,3.87
2018-08-27T21:05:52.835Z,3.00
2018-08-27T21:08:23.442Z,2.70
2018-08-27T21:10:54.727Z,3.40
2018-08-27T21:13:26.379Z,3.20
2018-08-27T21:15:57.484Z,3.50
2018-08-27T21:18:28.179Z,3.07
2018-08-27T21:20:58.759Z,4.33
2018-08-27T21:23:30.925Z,3.30
2018-08-27T21:26:03.340Z,3.50
2018-08-27T21:28:34.796Z,3.57
2018-08-27T21:31:08.184Z,3.93
2018-08-27T21:33:39.147Z,3.30
2018-08-27T21:36:10.507Z,3.37
2018-08-27T21:38:40.897Z,3.47
2018-08-27T21:41:11.765Z,3.53
2018-08-27T21:43:42.748Z,4.00
2018-08-27T21:46:14.040Z,3.90
2018-08-27T21:48:48.360Z,4.07
2018-08-27T21:51:19.624Z,3.80
2018-08-27T21:53:51.496Z,3.30
2018-08-27T21:56:22.697Z,3.60
2018-08-27T21:58:53.956Z,3.20
2018-08-27T22:01:25.704Z,3.23
2018-08-27T22:04:00.412Z,3.77
2018-08-27T22:06:30.763Z,3.40
2018-08-27T22:09:00.915Z,3.83
2018-08-27T22:11:31.343Z,3.90
2018-08-27T22:14:01.919Z,3.60
2018-08-27T22:16:32.504Z,3.10
2018-08-27T22:19:05.668Z,4.27
2018-08-27T22:21:37.363Z,2.80
2018-08-27T22:24:07.585Z,3.83
2018-08-27T22:26:38.392Z,3.23
2018-08-27T22:29:09.669Z,3.53
2018-08-27T22:31:46.092Z,4.10
2018-08-27T22:34:16.703Z,3.37
2018-08-27T22:36:50.859Z,3.63
2018-08-27T22:39:27.341Z,3.53
2018-08-27T22:42:03.439Z,4.00
2018-08-27T22:44:35.958Z,3.37
2018-08-27T22:47:13.516Z,3.40
2018-08-27T22:49:46.227Z,3.53
2018-08-27T22:52:17.719Z,3.30
2018-08-27T22:54:48.107Z,3.83
2018-08-27T22:57:19.224Z,3.43
2018-08-27T22:59:54.080Z,3.60
2018-08-27T23:02:30.613Z,3.13
2018-08-27T23:05:02.592Z,2.97
2018-08-27T23:07:33.783Z,3.60
2018-08-27T23:10:04.960Z,3.10
2018-08-27T23:12:36.602Z,3.13
2018-08-27T23:15:08.748Z,3.43
2018-08-27T23:17:43.499Z,3.30
2018-08-27T23:20:15.710Z,4.00
2018-08-27T23:22:52.199Z,4.10
2018-08-27T23:25:24.993Z,3.70
2018-08-27T23:27:58.127Z,3.50
2018-08-27T23:30:29.864Z,3.73
2018-08-27T23:33:02.056Z,3.40
2018-08-27T23:35:36.168Z,4.00
2018-08-27T23:38:08.983Z,2.80
2018-08-27T23:40:41.744Z,3.60
2018-08-27T23:43:12.746Z,3.43
2018-08-27T23:45:44.716Z,3.60
2018-08-27T23:48:37.115Z,4.00
2018-08-27T23:51:30.054Z,3.77
2018-08-27T23:54:02.652Z,3.43
2018-08-27T23:56:36.549Z,4.00
